createdAt,value
2022-12-01T00:03:51.430Z,22.6
2022-12-01T00:09:21.919Z,22.6
2022-12-01T00:14:51.394Z,22.6
2022-12-01T00:20:21.881Z,22.6
2022-12-01T00:25:52.381Z,22.6
2022-12-01T00:31:23.049Z,22.6
2022-12-01T00:36:53.442Z,22.6
2022-12-01T00:42:23.941Z,22.6
2022-12-01T00:47:53.403Z,22.7
2022-12-01T00:53:23.870Z,22.6
2022-12-01T00:58:54.396Z,22.7
2022-12-01T01:04:24.922Z,22.7
2022-12-01T01:09:55.396Z,22.6
2022-12-01T01:15:25.029Z,22.5
2022-12-01T01:20:55.466Z,22.4
2022-12-01T01:26:25.927Z,22.4
2022-12-01T01:31:55.461Z,22.5
2022-12-01T01:37:25.929Z,22.5
2022-12-01T01:42:56.384Z,22.5
2022-12-01T01:48:27.007Z,22.5
2022-12-01T01:53:57.471Z,22.4
2022-12-01T01:59:27.945Z,22.4
2022-12-01T02:04:58.565Z,22.4
2022-12-01T02:10:29.014Z,22.4
2022-12-01T02:15:59.532Z,22.4
2022-12-01T02:21:30.116Z,22.3
2022-12-01T02:27:00.708Z,22.3
2022-12-01T02:32:31.183Z,22.3
2022-12-01T02:38:01.819Z,22.3
2022-12-01T02:43:32.390Z,22.3
2022-12-01T02:49:02.890Z,22.3
2022-12-01T02:54:33.377Z,22.3
2022-12-01T03:00:03.935Z,22.3
2022-12-01T03:05:34.531Z,22.3
2022-12-01T03:11:04.038Z,22.3
2022-12-01T03:16:34.673Z,22.3
2022-12-01T03:22:04.997Z,22.3
2022-12-01T03:27:34.491Z,22.3
2022-12-01T03:33:04.944Z,22.2
2022-12-01T03:38:35.514Z,22.2
2022-12-01T03:44:06.034Z,22.2
2022-12-01T03:49:36.512Z,22.3
2022-12-01T03:55:05.980Z,22.2
2022-12-01T04:00:36.470Z,22.3
2022-12-01T04:06:06.937Z,22.4
2022-12-01T04:11:37.528Z,22.4
2022-12-01T04:17:08.117Z,22.4
2022-12-01T04:22:38.687Z,22.4
2022-12-01T04:28:09.174Z,22.4
2022-12-01T04:33:39.648Z,22.4
2022-12-01T04:39:10.225Z,22.4
2022-12-01T04:44:40.806Z,22.3
2022-12-01T04:50:11.308Z,22.2
2022-12-01T04:55:40.785Z,22.2
2022-12-01T05:01:11.369Z,22.2
2022-12-01T05:06:41.761Z,22.1
2022-12-01T05:12:12.317Z,22.1
2022-12-01T05:17:42.792Z,22.1
2022-12-01T05:23:16.782Z,22.1
2022-12-01T05:28:43.970Z,22.1
2022-12-01T05:34:14.457Z,22.1
2022-12-01T05:39:43.969Z,22.1
2022-12-01T05:45:14.428Z,22.1
2022-12-01T05:50:44.927Z,22.1
2022-12-01T05:56:14.437Z,22.1
2022-12-01T06:01:44.927Z,22.1
2022-12-01T06:07:15.492Z,22.1
2022-12-01T06:12:46.008Z,22.1
2022-12-01T06:18:16.425Z,22.1
2022-12-01T06:23:45.918Z,22.1
2022-12-01T06:29:16.414Z,22.1
2022-12-01T06:34:46.883Z,22.1
2022-12-01T06:40:17.588Z,22.1
2022-12-01T06:45:48.175Z,22.1
2022-12-01T06:51:17.558Z,22
2022-12-01T06:56:48.052Z,22.1
2022-12-01T07:02:18.557Z,22.1
2022-12-01T07:07:48.050Z,22.1
2022-12-01T07:13:18.490Z,22
2022-12-01T07:18:49.003Z,22
2022-12-01T07:24:19.549Z,22
2022-12-01T07:29:50.363Z,22
2022-12-01T07:35:19.532Z,22
2022-12-01T07:40:49.980Z,22
2022-12-01T07:46:23.233Z,22
2022-12-01T07:51:51.119Z,22
2022-12-01T07:57:21.522Z,22
2022-12-01T08:02:52.134Z,22
2022-12-01T08:08:22.633Z,22
2022-12-01T08:13:53.089Z,22
2022-12-01T08:19:22.585Z,22
2022-12-01T08:24:53.087Z,22
2022-12-01T08:30:23.543Z,22
2022-12-01T08:35:54.263Z,22
2022-12-01T08:41:24.769Z,22
2022-12-01T08:46:55.223Z,22
2022-12-01T08:52:25.793Z,22
2022-12-01T08:57:56.251Z,22
2022-12-01T09:03:26.705Z,22
2022-12-01T09:08:57.318Z,22
2022-12-01T09:14:27.831Z,22
2022-12-01T09:19:57.290Z,22
2022-12-01T09:25:27.776Z,22
2022-12-01T09:30:58.279Z,22
2022-12-01T09:36:28.843Z,22
2022-12-01T09:41:59.294Z,22
2022-12-01T09:47:29.807Z,22
2022-12-01T09:52:59.321Z,22
2022-12-01T09:58:29.827Z,22
2022-12-01T10:04:00.422Z,22
2022-12-01T10:09:30.878Z,22
2022-12-01T10:15:01.357Z,22
2022-12-01T10:20:32.003Z,22
2022-12-01T10:26:02.435Z,22
2022-12-01T10:31:33.100Z,22
2022-12-01T10:37:03.667Z,22
2022-12-01T10:43:40.475Z,21.9
2022-12-01T10:49:11.097Z,21.9
2022-12-01T10:54:41.602Z,22
2022-12-01T11:00:25.544Z,21.9
2022-12-01T11:05:42.683Z,22
2022-12-01T11:11:13.183Z,21.9
2022-12-01T11:16:43.866Z,22
2022-12-01T11:22:14.351Z,21.9
2022-12-01T11:27:44.845Z,22
2022-12-01T11:33:15.322Z,21.9
2022-12-01T11:38:44.785Z,21.9
2022-12-01T11:44:43.153Z,21.9
2022-12-01T11:49:47.267Z,22
2022-12-01T11:55:15.250Z,21.9
2022-12-01T12:00:45.747Z,22
2022-12-01T12:06:39.371Z,21.9
2022-12-01T12:11:45.676Z,21.9
2022-12-01T12:17:15.282Z,21.9
2022-12-01T12:22:47.636Z,21.9
2022-12-01T12:28:16.153Z,22
2022-12-01T12:33:45.663Z,21.9
2022-12-01T12:39:16.949Z,21.9
2022-12-01T12:44:46.575Z,21.9
2022-12-01T12:50:17.252Z,21.9
2022-12-01T12:55:47.659Z,21.9
2022-12-01T13:01:17.260Z,21.9
2022-12-01T13:06:47.679Z,21.9
2022-12-01T13:12:18.097Z,21.9
2022-12-01T13:17:48.691Z,21.9
2022-12-01T13:23:19.182Z,21.9
2022-12-01T13:28:49.647Z,21.9
2022-12-01T13:34:20.346Z,21.9
2022-12-01T13:39:51.030Z,21.9
2022-12-01T13:45:21.305Z,21.9
2022-12-01T13:50:51.899Z,21.9
2022-12-01T13:56:22.428Z,21.9
2022-12-01T14:01:52.897Z,21.9
2022-12-01T14:07:23.493Z,21.9
2022-12-01T14:12:53.938Z,21.9
2022-12-01T14:18:24.504Z,21.9
2022-12-01T14:23:55.013Z,21.9
2022-12-01T14:29:25.492Z,21.9
2022-12-01T14:34:55.943Z,21.9
2022-12-01T14:40:26.555Z,21.9
2022-12-01T14:45:57.049Z,22
2022-12-01T14:51:27.508Z,21.9
2022-12-01T14:57:00.240Z,21.9
2022-12-01T15:02:27.546Z,21.9
2022-12-01T15:08:18.612Z,21.9
2022-12-01T15:13:28.555Z,21.9
2022-12-01T15:18:59.049Z,21.9
2022-12-01T15:24:29.605Z,21.9
2022-12-01T15:30:00.170Z,22
2022-12-01T15:35:30.688Z,22
2022-12-01T15:46:31.705Z,22
2022-12-01T15:52:02.318Z,22
2022-12-01T15:57:32.888Z,22
2022-12-01T16:03:03.367Z,22
2022-12-01T16:08:33.920Z,22
2022-12-01T16:14:03.314Z,21.9
2022-12-01T16:19:33.778Z,21.9
2022-12-01T16:25:04.295Z,21.9
2022-12-01T16:30:33.888Z,21.9
2022-12-01T16:36:04.247Z,21.9
2022-12-01T16:41:38.143Z,21.8
2022-12-01T16:47:05.302Z,21.8
2022-12-01T16:52:44.277Z,21.8
2022-12-01T16:58:06.413Z,21.8
2022-12-01T17:03:36.866Z,21.8
2022-12-01T17:09:07.340Z,21.8
2022-12-01T17:14:38.082Z,21.8
2022-12-01T17:20:08.537Z,21.8
2022-12-01T17:25:39.113Z,21.8
2022-12-01T17:31:08.614Z,21.8
2022-12-01T17:36:38.975Z,21.8
2022-12-01T17:42:09.453Z,21.8
2022-12-01T17:47:40.073Z,21.8
2022-12-01T17:53:10.523Z,21.8
2022-12-01T17:58:40.074Z,21.8
2022-12-01T18:04:10.508Z,21.8
2022-12-01T18:09:40.967Z,21.8
2022-12-01T18:15:10.466Z,21.9
2022-12-01T18:20:40.967Z,22.1
2022-12-01T18:26:15.531Z,22.2
2022-12-01T18:31:40.960Z,22.3
2022-12-01T18:37:11.400Z,22.4
2022-12-01T18:42:41.959Z,22.5
2022-12-01T18:48:12.435Z,22.6
2022-12-01T18:53:42.931Z,22.6
2022-12-01T18:59:13.542Z,22.6
2022-12-01T19:04:43.988Z,22.6
2022-12-01T19:10:13.515Z,22.6
2022-12-01T19:15:43.951Z,22.6
2022-12-01T19:21:14.438Z,22.5
2022-12-01T19:26:45.047Z,22.5
2022-12-01T19:32:15.553Z,22.5
2022-12-01T19:37:46.026Z,22.4
2022-12-01T19:43:15.560Z,22.4
2022-12-01T19:48:46.009Z,22.4
2022-12-01T19:54:16.576Z,22.4
2022-12-01T19:59:47.084Z,22.4
2022-12-01T20:05:17.540Z,22.5
2022-12-01T20:10:48.232Z,22.6
2022-12-01T20:16:18.872Z,22.6
2022-12-01T20:21:49.176Z,22.6
2022-12-01T20:27:18.657Z,22.7
2022-12-01T20:32:49.166Z,22.7
2022-12-01T20:38:24.260Z,22.7
2022-12-01T20:43:50.196Z,22.7
2022-12-01T20:49:20.713Z,22.7
2022-12-01T20:54:51.604Z,22.6
2022-12-01T21:00:21.772Z,22.5
2022-12-01T21:05:52.262Z,22.5
2022-12-01T21:11:21.741Z,22.6
2022-12-01T21:16:52.280Z,22.6
2022-12-01T21:22:22.732Z,22.6
2022-12-01T21:27:53.296Z,22.7
2022-12-01T21:33:23.756Z,22.7
2022-12-01T21:38:54.249Z,22.7
2022-12-01T21:44:23.733Z,22.7
2022-12-01T21:49:54.219Z,22.8
2022-12-01T21:55:24.847Z,22.7
2022-12-01T22:00:55.417Z,22.7
2022-12-01T22:06:30.319Z,22.7
2022-12-01T22:11:55.277Z,22.8
2022-12-01T22:17:25.730Z,22.7
2022-12-01T22:22:56.308Z,22.7
2022-12-01T22:28:26.825Z,22.7
2022-12-01T22:34:02.679Z,22.7
2022-12-01T22:39:27.844Z,22.7
2022-12-01T22:44:58.369Z,22.7
2022-12-01T22:50:28.819Z,22.7
2022-12-01T22:55:58.285Z,22.7
2022-12-01T23:01:28.827Z,22.7
2022-12-01T23:06:59.374Z,22.7
2022-12-01T23:12:29.837Z,22.6
2022-12-01T23:18:00.349Z,22.5
2022-12-01T23:23:31.019Z,22.5
2022-12-01T23:29:01.516Z,22.5
2022-12-01T23:34:32.007Z,22.5
2022-12-01T23:40:02.592Z,22.4
2022-12-01T23:45:33.053Z,22.5
2022-12-01T23:51:03.796Z,22.5
2022-12-01T23:56:34.272Z,22.5
